sensor_id;sensor_type;location;lat;lon;timestamp;temperature;humidity
77829;DHT22;67019;51.034;3.728;2023-04-03T00:01:05;4.70;92.10
77829;DHT22;67019;51.034;3.728;2023-04-03T00:03:32;4.70;92.50
77829;DHT22;67019;51.034;3.728;2023-04-03T00:06:00;4.80;91.90
77829;DHT22;67019;51.034;3.728;2023-04-03T00:08:28;4.80;92.00
77829;DHT22;67019;51.034;3.728;2023-04-03T00:10:58;4.70;92.20
77829;DHT22;67019;51.034;3.728;2023-04-03T00:13:25;4.90;91.80
77829;DHT22;67019;51.034;3.728;2023-04-03T00:15:53;4.90;91.60
77829;DHT22;67019;51.034;3.728;2023-04-03T00:18:21;4.80;91.60
77829;DHT22;67019;51.034;3.728;2023-04-03T00:20:49;5.00;91.70
77829;DHT22;67019;51.034;3.728;2023-04-03T00:23:17;4.90;91.60
77829;DHT22;67019;51.034;3.728;2023-04-03T00:25:47;4.90;91.30
77829;DHT22;67019;51.034;3.728;2023-04-03T00:28:14;4.90;91.20
77829;DHT22;67019;51.034;3.728;2023-04-03T00:30:43;5.10;91.00
77829;DHT22;67019;51.034;3.728;2023-04-03T00:33:14;4.70;91.10
77829;DHT22;67019;51.034;3.728;2023-04-03T00:35:42;4.70;91.40
77829;DHT22;67019;51.034;3.728;2023-04-03T00:38:10;4.30;92.10
77829;DHT22;67019;51.034;3.728;2023-04-03T00:40:41;4.30;92.40
77829;DHT22;67019;51.034;3.728;2023-04-03T00:43:23;4.40;92.50
77829;DHT22;67019;51.034;3.728;2023-04-03T00:45:55;4.50;91.60
77829;DHT22;67019;51.034;3.728;2023-04-03T00:48:27;4.40;91.70
77829;DHT22;67019;51.034;3.728;2023-04-03T00:50:53;4.30;92.10
77829;DHT22;67019;51.034;3.728;2023-04-03T00:53:26;4.40;92.20
77829;DHT22;67019;51.034;3.728;2023-04-03T00:55:56;4.60;91.30
77829;DHT22;67019;51.034;3.728;2023-04-03T00:58:32;4.40;91.70
77829;DHT22;67019;51.034;3.728;2023-04-03T01:00:58;4.40;91.70
77829;DHT22;67019;51.034;3.728;2023-04-03T01:03:25;4.30;92.00
77829;DHT22;67019;51.034;3.728;2023-04-03T01:05:55;4.20;92.40
77829;DHT22;67019;51.034;3.728;2023-04-03T01:08:22;4.30;92.30
77829;DHT22;67019;51.034;3.728;2023-04-03T01:10:51;4.30;92.40
77829;DHT22;67019;51.034;3.728;2023-04-03T01:13:29;4.10;92.50
77829;DHT22;67019;51.034;3.728;2023-04-03T01:15:56;4.20;92.30
77829;DHT22;67019;51.034;3.728;2023-04-03T01:18:30;4.20;92.30
77829;DHT22;67019;51.034;3.728;2023-04-03T01:21:25;4.20;92.40
77829;DHT22;67019;51.034;3.728;2023-04-03T01:23:59;4.10;92.40
77829;DHT22;67019;51.034;3.728;2023-04-03T01:26:29;4.30;92.10
77829;DHT22;67019;51.034;3.728;2023-04-03T01:28:59;4.40;91.80
77829;DHT22;67019;51.034;3.728;2023-04-03T01:31:44;4.40;91.70
77829;DHT22;67019;51.034;3.728;2023-04-03T01:34:12;4.20;92.00
77829;DHT22;67019;51.034;3.728;2023-04-03T01:36:39;4.40;91.80
77829;DHT22;67019;51.034;3.728;2023-04-03T01:39:07;4.30;91.80
77829;DHT22;67019;51.034;3.728;2023-04-03T01:41:35;4.30;92.10
77829;DHT22;67019;51.034;3.728;2023-04-03T01:44:03;4.20;92.20
77829;DHT22;67019;51.034;3.728;2023-04-03T01:46:31;4.20;92.00
77829;DHT22;67019;51.034;3.728;2023-04-03T01:48:59;4.20;92.30
77829;DHT22;67019;51.034;3.728;2023-04-03T01:51:27;2.90;91.60
77829;DHT22;67019;51.034;3.728;2023-04-03T01:53:54;4.30;92.00
77829;DHT22;67019;51.034;3.728;2023-04-03T01:56:23;4.30;92.00
77829;DHT22;67019;51.034;3.728;2023-04-03T01:58:51;4.10;92.50
77829;DHT22;67019;51.034;3.728;2023-04-03T02:01:19;4.00;92.70
77829;DHT22;67019;51.034;3.728;2023-04-03T02:03:47;4.10;92.70
77829;DHT22;67019;51.034;3.728;2023-04-03T02:06:16;4.20;92.20
77829;DHT22;67019;51.034;3.728;2023-04-03T02:08:44;4.30;92.30
77829;DHT22;67019;51.034;3.728;2023-04-03T02:11:13;4.40;91.90
77829;DHT22;67019;51.034;3.728;2023-04-03T02:13:41;4.30;91.90
77829;DHT22;67019;51.034;3.728;2023-04-03T02:16:10;4.30;92.20
77829;DHT22;67019;51.034;3.728;2023-04-03T02:18:39;4.20;92.30
77829;DHT22;67019;51.034;3.728;2023-04-03T02:21:07;4.00;95.00
77829;DHT22;67019;51.034;3.728;2023-04-03T02:23:34;4.00;94.80
77829;DHT22;67019;51.034;3.728;2023-04-03T02:26:05;4.10;92.70
77829;DHT22;67019;51.034;3.728;2023-04-03T02:28:33;4.20;92.60
77829;DHT22;67019;51.034;3.728;2023-04-03T02:31:00;4.10;92.50
77829;DHT22;67019;51.034;3.728;2023-04-03T02:33:28;4.10;92.80
77829;DHT22;67019;51.034;3.728;2023-04-03T02:35:56;4.20;92.40
77829;DHT22;67019;51.034;3.728;2023-04-03T02:38:25;4.00;92.70
77829;DHT22;67019;51.034;3.728;2023-04-03T02:40:52;4.00;92.70
77829;DHT22;67019;51.034;3.728;2023-04-03T02:43:20;4.20;92.60
77829;DHT22;67019;51.034;3.728;2023-04-03T02:45:48;4.40;92.30
77829;DHT22;67019;51.034;3.728;2023-04-03T02:48:15;4.20;92.40
77829;DHT22;67019;51.034;3.728;2023-04-03T02:50:43;4.00;92.80
77829;DHT22;67019;51.034;3.728;2023-04-03T02:53:10;4.20;92.70
77829;DHT22;67019;51.034;3.728;2023-04-03T02:55:38;4.10;92.60
77829;DHT22;67019;51.034;3.728;2023-04-03T02:58:08;4.10;92.60
77829;DHT22;67019;51.034;3.728;2023-04-03T03:00:35;3.90;92.90
77829;DHT22;67019;51.034;3.728;2023-04-03T03:03:03;4.10;92.90
77829;DHT22;67019;51.034;3.728;2023-04-03T03:05:31;4.00;92.50
77829;DHT22;67019;51.034;3.728;2023-04-03T03:07:58;4.00;92.90
77829;DHT22;67019;51.034;3.728;2023-04-03T03:10:26;3.90;92.90
77829;DHT22;67019;51.034;3.728;2023-04-03T03:12:54;3.80;93.10
77829;DHT22;67019;51.034;3.728;2023-04-03T03:15:21;3.80;93.30
77829;DHT22;67019;51.034;3.728;2023-04-03T03:17:49;3.90;93.10
77829;DHT22;67019;51.034;3.728;2023-04-03T03:20:17;3.70;92.90
77829;DHT22;67019;51.034;3.728;2023-04-03T03:22:44;3.60;93.40
77829;DHT22;67019;51.034;3.728;2023-04-03T03:25:12;3.50;93.60
77829;DHT22;67019;51.034;3.728;2023-04-03T03:27:41;3.50;93.80
77829;DHT22;67019;51.034;3.728;2023-04-03T03:30:08;3.70;93.20
77829;DHT22;67019;51.034;3.728;2023-04-03T03:32:36;3.70;93.10
77829;DHT22;67019;51.034;3.728;2023-04-03T03:35:04;3.70;93.20
77829;DHT22;67019;51.034;3.728;2023-04-03T03:37:32;3.60;93.30
77829;DHT22;67019;51.034;3.728;2023-04-03T03:39:59;3.30;95.80
77829;DHT22;67019;51.034;3.728;2023-04-03T03:42:27;3.50;93.40
77829;DHT22;67019;51.034;3.728;2023-04-03T03:44:55;3.60;93.40
77829;DHT22;67019;51.034;3.728;2023-04-03T03:47:22;3.40;93.90
77829;DHT22;67019;51.034;3.728;2023-04-03T03:49:50;3.60;93.60
77829;DHT22;67019;51.034;3.728;2023-04-03T03:52:18;3.60;93.50
77829;DHT22;67019;51.034;3.728;2023-04-03T03:54:46;3.60;93.30
77829;DHT22;67019;51.034;3.728;2023-04-03T03:57:13;3.50;93.30
77829;DHT22;67019;51.034;3.728;2023-04-03T03:59:43;3.50;93.40
77829;DHT22;67019;51.034;3.728;2023-04-03T04:02:11;3.40;93.80
77829;DHT22;67019;51.034;3.728;2023-04-03T04:04:39;3.40;93.80
77829;DHT22;67019;51.034;3.728;2023-04-03T04:07:06;3.40;94.00
77829;DHT22;67019;51.034;3.728;2023-04-03T04:09:34;3.40;93.80
77829;DHT22;67019;51.034;3.728;2023-04-03T04:12:02;3.90;92.90
77829;DHT22;67019;51.034;3.728;2023-04-03T04:14:29;3.70;92.80
77829;DHT22;67019;51.034;3.728;2023-04-03T04:16:57;3.70;93.10
77829;DHT22;67019;51.034;3.728;2023-04-03T04:19:25;3.60;93.00
77829;DHT22;67019;51.034;3.728;2023-04-03T04:21:52;3.60;92.90
77829;DHT22;67019;51.034;3.728;2023-04-03T04:24:20;3.50;93.10
77829;DHT22;67019;51.034;3.728;2023-04-03T04:26:49;3.40;93.20
77829;DHT22;67019;51.034;3.728;2023-04-03T04:29:16;3.50;93.60
77829;DHT22;67019;51.034;3.728;2023-04-03T04:31:45;3.60;93.10
77829;DHT22;67019;51.034;3.728;2023-04-03T04:34:13;3.40;93.40
77829;DHT22;67019;51.034;3.728;2023-04-03T04:36:41;3.40;93.60
77829;DHT22;67019;51.034;3.728;2023-04-03T04:39:09;3.50;93.50
77829;DHT22;67019;51.034;3.728;2023-04-03T04:41:36;3.50;93.50
77829;DHT22;67019;51.034;3.728;2023-04-03T04:44:04;3.50;93.00
77829;DHT22;67019;51.034;3.728;2023-04-03T04:46:32;3.30;93.30
77829;DHT22;67019;51.034;3.728;2023-04-03T04:48:59;3.50;93.60
77829;DHT22;67019;51.034;3.728;2023-04-03T04:51:27;3.60;92.80
77829;DHT22;67019;51.034;3.728;2023-04-03T04:53:55;3.40;93.00
77829;DHT22;67019;51.034;3.728;2023-04-03T04:56:22;3.40;93.50
77829;DHT22;67019;51.034;3.728;2023-04-03T04:58:50;3.50;93.60
77829;DHT22;67019;51.034;3.728;2023-04-03T05:01:17;3.50;93.00
77829;DHT22;67019;51.034;3.728;2023-04-03T05:03:47;3.50;93.30
77829;DHT22;67019;51.034;3.728;2023-04-03T05:06:16;5.90;94.30
77829;DHT22;67019;51.034;3.728;2023-04-03T05:08:43;3.30;93.90
77829;DHT22;67019;51.034;3.728;2023-04-03T05:11:11;3.10;93.90
77829;DHT22;67019;51.034;3.728;2023-04-03T05:13:39;3.20;94.30
77829;DHT22;67019;51.034;3.728;2023-04-03T05:16:06;3.30;94.30
77829;DHT22;67019;51.034;3.728;2023-04-03T05:18:34;3.30;93.70
77829;DHT22;67019;51.034;3.728;2023-04-03T05:21:02;3.10;94.10
77829;DHT22;67019;51.034;3.728;2023-04-03T05:23:30;2.80;94.50
77829;DHT22;67019;51.034;3.728;2023-04-03T05:25:57;2.90;94.80
77829;DHT22;67019;51.034;3.728;2023-04-03T05:28:25;3.10;94.50
77829;DHT22;67019;51.034;3.728;2023-04-03T05:30:55;3.30;94.10
77829;DHT22;67019;51.034;3.728;2023-04-03T05:33:23;3.10;94.10
77829;DHT22;67019;51.034;3.728;2023-04-03T05:35:53;3.10;94.40
77829;DHT22;67019;51.034;3.728;2023-04-03T05:38:20;3.20;93.80
77829;DHT22;67019;51.034;3.728;2023-04-03T05:40:48;3.20;93.90
77829;DHT22;67019;51.034;3.728;2023-04-03T05:43:16;3.30;94.20
77829;DHT22;67019;51.034;3.728;2023-04-03T05:45:44;3.30;94.30
77829;DHT22;67019;51.034;3.728;2023-04-03T05:48:11;3.10;97.20
77829;DHT22;67019;51.034;3.728;2023-04-03T05:50:39;3.40;96.90
77829;DHT22;67019;51.034;3.728;2023-04-03T05:53:15;3.20;97.20
77829;DHT22;67019;51.034;3.728;2023-04-03T05:55:42;3.40;96.40
77829;DHT22;67019;51.034;3.728;2023-04-03T05:58:09;3.40;94.00
77829;DHT22;67019;51.034;3.728;2023-04-03T06:00:37;3.40;94.00
77829;DHT22;67019;51.034;3.728;2023-04-03T06:03:05;3.40;94.10
77829;DHT22;67019;51.034;3.728;2023-04-03T06:05:33;3.40;93.90
77829;DHT22;67019;51.034;3.728;2023-04-03T06:08:01;3.40;94.30
77829;DHT22;67019;51.034;3.728;2023-04-03T06:10:29;3.50;93.90
77829;DHT22;67019;51.034;3.728;2023-04-03T06:12:57;3.60;94.30
77829;DHT22;67019;51.034;3.728;2023-04-03T06:15:25;3.70;94.00
77829;DHT22;67019;51.034;3.728;2023-04-03T06:17:52;3.70;93.80
77829;DHT22;67019;51.034;3.728;2023-04-03T06:20:20;3.80;94.00
77829;DHT22;67019;51.034;3.728;2023-04-03T06:22:49;3.80;93.30
77829;DHT22;67019;51.034;3.728;2023-04-03T06:25:19;3.60;94.00
77829;DHT22;67019;51.034;3.728;2023-04-03T06:27:47;3.70;94.00
77829;DHT22;67019;51.034;3.728;2023-04-03T06:30:15;3.90;93.80
77829;DHT22;67019;51.034;3.728;2023-04-03T06:32:43;3.90;93.70
77829;DHT22;67019;51.034;3.728;2023-04-03T06:35:10;3.90;93.60
77829;DHT22;67019;51.034;3.728;2023-04-03T06:37:39;3.80;94.00
77829;DHT22;67019;51.034;3.728;2023-04-03T06:40:10;3.90;93.80
77829;DHT22;67019;51.034;3.728;2023-04-03T06:42:40;3.80;93.70
77829;DHT22;67019;51.034;3.728;2023-04-03T06:45:08;3.90;93.10
77829;DHT22;67019;51.034;3.728;2023-04-03T06:47:37;3.90;93.60
77829;DHT22;67019;51.034;3.728;2023-04-03T06:50:05;3.70;96.50
77829;DHT22;67019;51.034;3.728;2023-04-03T06:52:33;3.70;93.50
77829;DHT22;67019;51.034;3.728;2023-04-03T06:55:01;3.90;93.40
77829;DHT22;67019;51.034;3.728;2023-04-03T06:57:29;3.90;93.50
77829;DHT22;67019;51.034;3.728;2023-04-03T06:59:57;4.00;93.00
77829;DHT22;67019;51.034;3.728;2023-04-03T07:02:24;4.10;92.50
77829;DHT22;67019;51.034;3.728;2023-04-03T07:04:52;4.10;92.80
77829;DHT22;67019;51.034;3.728;2023-04-03T07:07:20;4.20;92.80
77829;DHT22;67019;51.034;3.728;2023-04-03T07:09:48;4.40;91.90
77829;DHT22;67019;51.034;3.728;2023-04-03T07:12:16;4.60;92.30
77829;DHT22;67019;51.034;3.728;2023-04-03T07:14:45;4.80;91.40
77829;DHT22;67019;51.034;3.728;2023-04-03T07:17:12;4.70;91.40
77829;DHT22;67019;51.034;3.728;2023-04-03T07:19:40;4.90;91.40
77829;DHT22;67019;51.034;3.728;2023-04-03T07:22:09;4.90;91.10
77829;DHT22;67019;51.034;3.728;2023-04-03T07:24:37;4.80;91.80
77829;DHT22;67019;51.034;3.728;2023-04-03T07:27:05;4.90;91.70
77829;DHT22;67019;51.034;3.728;2023-04-03T07:29:35;5.10;91.50
77829;DHT22;67019;51.034;3.728;2023-04-03T07:32:03;5.00;91.60
77829;DHT22;67019;51.034;3.728;2023-04-03T07:34:32;5.10;91.00
77829;DHT22;67019;51.034;3.728;2023-04-03T07:37:00;5.20;90.30
77829;DHT22;67019;51.034;3.728;2023-04-03T07:39:29;5.10;90.40
77829;DHT22;67019;51.034;3.728;2023-04-03T07:41:57;5.20;90.40
77829;DHT22;67019;51.034;3.728;2023-04-03T07:44:25;5.20;90.70
77829;DHT22;67019;51.034;3.728;2023-04-03T07:46:52;6.00;90.30
77829;DHT22;67019;51.034;3.728;2023-04-03T07:49:22;5.10;90.10
77829;DHT22;67019;51.034;3.728;2023-04-03T07:51:52;5.30;89.40
77829;DHT22;67019;51.034;3.728;2023-04-03T07:54:20;5.10;90.70
77829;DHT22;67019;51.034;3.728;2023-04-03T07:56:47;5.20;90.80
77829;DHT22;67019;51.034;3.728;2023-04-03T07:59:15;5.30;90.20
77829;DHT22;67019;51.034;3.728;2023-04-03T08:01:42;5.50;90.10
77829;DHT22;67019;51.034;3.728;2023-04-03T08:04:10;5.60;90.10
77829;DHT22;67019;51.034;3.728;2023-04-03T08:06:38;5.60;89.80
77829;DHT22;67019;51.034;3.728;2023-04-03T08:09:05;5.80;89.80
77829;DHT22;67019;51.034;3.728;2023-04-03T08:11:33;6.00;89.20
77829;DHT22;67019;51.034;3.728;2023-04-03T08:14:03;6.10;88.80
77829;DHT22;67019;51.034;3.728;2023-04-03T08:16:30;6.20;87.10
77829;DHT22;67019;51.034;3.728;2023-04-03T08:18:58;6.10;88.30
77829;DHT22;67019;51.034;3.728;2023-04-03T08:21:26;6.10;87.10
77829;DHT22;67019;51.034;3.728;2023-04-03T08:23:53;6.10;87.70
77829;DHT22;67019;51.034;3.728;2023-04-03T08:26:21;6.20;87.80
77829;DHT22;67019;51.034;3.728;2023-04-03T08:28:49;6.30;86.90
77829;DHT22;67019;51.034;3.728;2023-04-03T08:31:18;6.40;86.70
77829;DHT22;67019;51.034;3.728;2023-04-03T08:33:47;6.40;87.90
77829;DHT22;67019;51.034;3.728;2023-04-03T08:36:25;6.40;86.60
77829;DHT22;67019;51.034;3.728;2023-04-03T08:38:50;6.60;85.60
77829;DHT22;67019;51.034;3.728;2023-04-03T08:41:28;6.60;86.00
77829;DHT22;67019;51.034;3.728;2023-04-03T08:44:02;6.70;84.10
77829;DHT22;67019;51.034;3.728;2023-04-03T08:47:01;6.80;84.30
77829;DHT22;67019;51.034;3.728;2023-04-03T08:49:36;7.00;83.60
77829;DHT22;67019;51.034;3.728;2023-04-03T08:52:03;7.30;80.70
77829;DHT22;67019;51.034;3.728;2023-04-03T08:54:33;7.40;78.80
77829;DHT22;67019;51.034;3.728;2023-04-03T08:57:10;7.30;76.40
77829;DHT22;67019;51.034;3.728;2023-04-03T08:59:40;7.30;77.00
77829;DHT22;67019;51.034;3.728;2023-04-03T09:02:26;7.20;76.90
77829;DHT22;67019;51.034;3.728;2023-04-03T09:04:53;7.30;75.90
77829;DHT22;67019;51.034;3.728;2023-04-03T09:07:30;7.30;76.20
77829;DHT22;67019;51.034;3.728;2023-04-03T09:09:55;7.30;75.90
77829;DHT22;67019;51.034;3.728;2023-04-03T09:12:27;7.40;73.40
77829;DHT22;67019;51.034;3.728;2023-04-03T09:23:18;7.40;74.60
77829;DHT22;67019;51.034;3.728;2023-04-03T09:28:37;7.50;75.90
77829;DHT22;67019;51.034;3.728;2023-04-03T09:31:19;7.80;73.70
77829;DHT22;67019;51.034;3.728;2023-04-03T09:33:39;7.80;71.70
77829;DHT22;67019;51.034;3.728;2023-04-03T09:36:07;7.70;73.30
77829;DHT22;67019;51.034;3.728;2023-04-03T09:38:35;7.60;71.30
77829;DHT22;67019;51.034;3.728;2023-04-03T09:41:06;7.50;71.70
77829;DHT22;67019;51.034;3.728;2023-04-03T09:43:37;7.60;71.20
77829;DHT22;67019;51.034;3.728;2023-04-03T09:46:37;7.70;67.90
77829;DHT22;67019;51.034;3.728;2023-04-03T09:48:56;7.50;68.10
77829;DHT22;67019;51.034;3.728;2023-04-03T09:51:26;7.40;70.70
77829;DHT22;67019;51.034;3.728;2023-04-03T09:53:54;7.50;70.70
77829;DHT22;67019;51.034;3.728;2023-04-03T09:56:25;7.50;68.90
77829;DHT22;67019;51.034;3.728;2023-04-03T09:59:14;7.60;69.50
77829;DHT22;67019;51.034;3.728;2023-04-03T10:01:57;7.90;67.90
77829;DHT22;67019;51.034;3.728;2023-04-03T10:04:25;8.00;69.10
77829;DHT22;67019;51.034;3.728;2023-04-03T10:06:56;8.00;68.60
77829;DHT22;67019;51.034;3.728;2023-04-03T10:09:26;7.90;66.40
77829;DHT22;67019;51.034;3.728;2023-04-03T10:12:11;7.80;67.20
77829;DHT22;67019;51.034;3.728;2023-04-03T10:15:16;7.80;69.20
77829;DHT22;67019;51.034;3.728;2023-04-03T10:22:37;8.20;67.80
77829;DHT22;67019;51.034;3.728;2023-04-03T10:25:49;8.30;66.50
77829;DHT22;67019;51.034;3.728;2023-04-03T10:28:09;8.40;65.40
77829;DHT22;67019;51.034;3.728;2023-04-03T10:30:56;8.60;65.90
77829;DHT22;67019;51.034;3.728;2023-04-03T10:33:32;8.70;63.10
77829;DHT22;67019;51.034;3.728;2023-04-03T10:36:07;8.50;62.80
77829;DHT22;67019;51.034;3.728;2023-04-03T10:38:54;8.50;62.80
77829;DHT22;67019;51.034;3.728;2023-04-03T10:44:26;8.70;59.60
77829;DHT22;67019;51.034;3.728;2023-04-03T10:46:57;8.70;59.30
77829;DHT22;67019;51.034;3.728;2023-04-03T10:49:27;8.70;59.90
77829;DHT22;67019;51.034;3.728;2023-04-03T10:52:01;8.70;60.90
77829;DHT22;67019;51.034;3.728;2023-04-03T10:54:39;8.70;60.40
77829;DHT22;67019;51.034;3.728;2023-04-03T10:57:10;8.80;59.90
77829;DHT22;67019;51.034;3.728;2023-04-03T10:59:56;8.90;58.40
77829;DHT22;67019;51.034;3.728;2023-04-03T11:02:37;8.90;57.70
77829;DHT22;67019;51.034;3.728;2023-04-03T11:05:06;9.00;59.60
77829;DHT22;67019;51.034;3.728;2023-04-03T11:07:38;8.90;60.40
77829;DHT22;67019;51.034;3.728;2023-04-03T11:10:17;9.00;59.80
77829;DHT22;67019;51.034;3.728;2023-04-03T11:12:54;9.00;58.20
77829;DHT22;67019;51.034;3.728;2023-04-03T11:15:29;9.30;58.80
77829;DHT22;67019;51.034;3.728;2023-04-03T11:17:55;9.60;58.60
77829;DHT22;67019;51.034;3.728;2023-04-03T11:20:29;9.80;57.70
77829;DHT22;67019;51.034;3.728;2023-04-03T11:23:04;9.70;54.20
77829;DHT22;67019;51.034;3.728;2023-04-03T11:25:37;9.40;54.30
77829;DHT22;67019;51.034;3.728;2023-04-03T11:28:11;9.40;55.80
77829;DHT22;67019;51.034;3.728;2023-04-03T11:35:58;11.60;56.40
77829;DHT22;67019;51.034;3.728;2023-04-03T11:38:31;10.10;54.60
77829;DHT22;67019;51.034;3.728;2023-04-03T11:41:02;9.80;53.40
77829;DHT22;67019;51.034;3.728;2023-04-03T11:43:31;9.80;52.90
77829;DHT22;67019;51.034;3.728;2023-04-03T11:46:07;9.80;52.50
77829;DHT22;67019;51.034;3.728;2023-04-03T11:48:42;9.60;51.10
77829;DHT22;67019;51.034;3.728;2023-04-03T11:53:44;9.80;48.90
77829;DHT22;67019;51.034;3.728;2023-04-03T12:01:56;9.80;47.70
77829;DHT22;67019;51.034;3.728;2023-04-03T12:04:26;9.80;49.60
77829;DHT22;67019;51.034;3.728;2023-04-03T12:06:59;9.90;49.00
77829;DHT22;67019;51.034;3.728;2023-04-03T12:09:29;10.10;46.80
77829;DHT22;67019;51.034;3.728;2023-04-03T12:12:00;10.00;46.70
77829;DHT22;67019;51.034;3.728;2023-04-03T12:14:30;10.10;47.20
77829;DHT22;67019;51.034;3.728;2023-04-03T12:16:58;10.00;46.70
77829;DHT22;67019;51.034;3.728;2023-04-03T12:19:37;9.90;45.10
77829;DHT22;67019;51.034;3.728;2023-04-03T12:22:15;10.00;44.80
77829;DHT22;67019;51.034;3.728;2023-04-03T12:24:45;10.30;45.70
77829;DHT22;67019;51.034;3.728;2023-04-03T12:27:29;10.20;45.60
77829;DHT22;67019;51.034;3.728;2023-04-03T12:35:36;10.30;44.00
77829;DHT22;67019;51.034;3.728;2023-04-03T12:43:39;10.70;43.00
77829;DHT22;67019;51.034;3.728;2023-04-03T12:48:57;10.30;44.80
77829;DHT22;67019;51.034;3.728;2023-04-03T12:51:43;10.20;43.10
77829;DHT22;67019;51.034;3.728;2023-04-03T12:54:21;10.00;43.80
77829;DHT22;67019;51.034;3.728;2023-04-03T12:56:48;10.10;45.30
77829;DHT22;67019;51.034;3.728;2023-04-03T12:59:19;10.20;45.50
77829;DHT22;67019;51.034;3.728;2023-04-03T13:01:58;10.20;45.90
77829;DHT22;67019;51.034;3.728;2023-04-03T13:04:28;10.20;45.80
77829;DHT22;67019;51.034;3.728;2023-04-03T13:06:56;10.40;46.30
77829;DHT22;67019;51.034;3.728;2023-04-03T13:09:26;10.40;44.00
77829;DHT22;67019;51.034;3.728;2023-04-03T13:12:03;10.40;42.40
77829;DHT22;67019;51.034;3.728;2023-04-03T13:14:31;10.40;40.60
77829;DHT22;67019;51.034;3.728;2023-04-03T13:17:09;10.40;41.10
77829;DHT22;67019;51.034;3.728;2023-04-03T13:19:33;10.50;41.80
77829;DHT22;67019;51.034;3.728;2023-04-03T13:22:08;10.50;41.60
77829;DHT22;67019;51.034;3.728;2023-04-03T13:24:37;10.40;40.30
77829;DHT22;67019;51.034;3.728;2023-04-03T13:27:05;10.40;41.30
77829;DHT22;67019;51.034;3.728;2023-04-03T13:29:35;10.50;42.20
77829;DHT22;67019;51.034;3.728;2023-04-03T13:32:03;10.30;42.10
77829;DHT22;67019;51.034;3.728;2023-04-03T13:34:43;10.50;42.50
77829;DHT22;67019;51.034;3.728;2023-04-03T13:37:23;10.70;41.80
77829;DHT22;67019;51.034;3.728;2023-04-03T13:42:39;10.90;41.60
77829;DHT22;67019;51.034;3.728;2023-04-03T13:45:22;10.80;41.40
77829;DHT22;67019;51.034;3.728;2023-04-03T13:47:52;11.00;41.30
77829;DHT22;67019;51.034;3.728;2023-04-03T13:50:24;11.40;40.40
77829;DHT22;67019;51.034;3.728;2023-04-03T13:53:08;10.90;38.30
77829;DHT22;67019;51.034;3.728;2023-04-03T13:55:34;10.60;37.50
77829;DHT22;67019;51.034;3.728;2023-04-03T14:00:56;10.70;37.80
77829;DHT22;67019;51.034;3.728;2023-04-03T14:04:27;10.80;38.30
77829;DHT22;67019;51.034;3.728;2023-04-03T14:06:05;10.90;37.60
77829;DHT22;67019;51.034;3.728;2023-04-03T14:08:33;11.00;37.10
77829;DHT22;67019;51.034;3.728;2023-04-03T14:11:01;11.00;36.80
77829;DHT22;67019;51.034;3.728;2023-04-03T14:13:32;10.60;37.90
77829;DHT22;67019;51.034;3.728;2023-04-03T14:16:00;10.50;37.50
77829;DHT22;67019;51.034;3.728;2023-04-03T14:18:27;10.80;38.00
77829;DHT22;67019;51.034;3.728;2023-04-03T14:20:55;10.60;37.90
77829;DHT22;67019;51.034;3.728;2023-04-03T14:23:22;10.60;38.00
77829;DHT22;67019;51.034;3.728;2023-04-03T14:25:50;10.70;37.80
77829;DHT22;67019;51.034;3.728;2023-04-03T14:28:20;10.90;37.20
77829;DHT22;67019;51.034;3.728;2023-04-03T14:30:50;11.50;36.30
77829;DHT22;67019;51.034;3.728;2023-04-03T14:33:20;12.30;35.20
77829;DHT22;67019;51.034;3.728;2023-04-03T14:35:49;12.80;33.90
77829;DHT22;67019;51.034;3.728;2023-04-03T14:38:29;13.10;32.80
77829;DHT22;67019;51.034;3.728;2023-04-03T14:40:54;13.20;31.40
77829;DHT22;67019;51.034;3.728;2023-04-03T14:43:22;14.20;32.00
77829;DHT22;67019;51.034;3.728;2023-04-03T14:45:50;13.50;31.70
77829;DHT22;67019;51.034;3.728;2023-04-03T14:48:23;13.40;33.10
77829;DHT22;67019;51.034;3.728;2023-04-03T14:50:52;14.10;31.60
77829;DHT22;67019;51.034;3.728;2023-04-03T14:53:20;14.60;29.00
77829;DHT22;67019;51.034;3.728;2023-04-03T14:55:52;16.00;29.80
77829;DHT22;67019;51.034;3.728;2023-04-03T14:58:21;15.90;29.20
77829;DHT22;67019;51.034;3.728;2023-04-03T15:00:48;15.60;29.30
77829;DHT22;67019;51.034;3.728;2023-04-03T15:03:21;15.60;30.60
77829;DHT22;67019;51.034;3.728;2023-04-03T15:05:49;14.70;30.10
77829;DHT22;67019;51.034;3.728;2023-04-03T15:08:22;14.60;31.60
77829;DHT22;67019;51.034;3.728;2023-04-03T15:10:51;15.20;29.80
77829;DHT22;67019;51.034;3.728;2023-04-03T15:13:20;14.70;30.40
77829;DHT22;67019;51.034;3.728;2023-04-03T15:15:47;15.10;30.80
77829;DHT22;67019;51.034;3.728;2023-04-03T15:18:21;13.80;32.90
77829;DHT22;67019;51.034;3.728;2023-04-03T15:20:49;14.50;31.60
77829;DHT22;67019;51.034;3.728;2023-04-03T15:23:17;14.10;31.60
77829;DHT22;67019;51.034;3.728;2023-04-03T15:25:48;14.20;31.70
77829;DHT22;67019;51.034;3.728;2023-04-03T15:30:52;13.90;32.80
77829;DHT22;67019;51.034;3.728;2023-04-03T15:33:21;15.30;30.70
77829;DHT22;67019;51.034;3.728;2023-04-03T15:35:49;14.80;30.70
77829;DHT22;67019;51.034;3.728;2023-04-03T15:38:17;13.20;32.50
77829;DHT22;67019;51.034;3.728;2023-04-03T15:40:44;13.10;32.40
77829;DHT22;67019;51.034;3.728;2023-04-03T15:43:13;12.80;33.40
77829;DHT22;67019;51.034;3.728;2023-04-03T15:45:42;13.60;32.40
77829;DHT22;67019;51.034;3.728;2023-04-03T15:48:10;14.90;30.30
77829;DHT22;67019;51.034;3.728;2023-04-03T15:50:39;15.80;29.40
77829;DHT22;67019;51.034;3.728;2023-04-03T15:53:08;15.70;29.40
77829;DHT22;67019;51.034;3.728;2023-04-03T15:55:37;15.20;29.20
77829;DHT22;67019;51.034;3.728;2023-04-03T15:58:05;15.40;29.60
77829;DHT22;67019;51.034;3.728;2023-04-03T16:00:33;15.70;29.00
77829;DHT22;67019;51.034;3.728;2023-04-03T16:03:05;16.60;28.30
77829;DHT22;67019;51.034;3.728;2023-04-03T16:05:35;17.00;28.50
77829;DHT22;67019;51.034;3.728;2023-04-03T16:08:03;15.30;29.40
77829;DHT22;67019;51.034;3.728;2023-04-03T16:10:31;15.70;29.40
77829;DHT22;67019;51.034;3.728;2023-04-03T16:12:59;15.70;29.90
77829;DHT22;67019;51.034;3.728;2023-04-03T16:15:27;16.20;28.90
77829;DHT22;67019;51.034;3.728;2023-04-03T16:17:54;14.80;32.00
77829;DHT22;67019;51.034;3.728;2023-04-03T16:20:22;16.30;30.00
77829;DHT22;67019;51.034;3.728;2023-04-03T16:23:00;16.10;28.30
77829;DHT22;67019;51.034;3.728;2023-04-03T16:25:33;15.80;29.30
77829;DHT22;67019;51.034;3.728;2023-04-03T16:28:02;16.10;28.60
77829;DHT22;67019;51.034;3.728;2023-04-03T16:30:31;16.30;28.10
77829;DHT22;67019;51.034;3.728;2023-04-03T16:32:59;17.10;26.90
77829;DHT22;67019;51.034;3.728;2023-04-03T16:35:26;16.70;27.60
77829;DHT22;67019;51.034;3.728;2023-04-03T16:37:54;16.00;27.80
77829;DHT22;67019;51.034;3.728;2023-04-03T16:40:22;16.40;27.40
77829;DHT22;67019;51.034;3.728;2023-04-03T16:42:50;16.10;27.60
77829;DHT22;67019;51.034;3.728;2023-04-03T16:45:17;15.90;27.90
77829;DHT22;67019;51.034;3.728;2023-04-03T16:47:45;14.70;29.70
77829;DHT22;67019;51.034;3.728;2023-04-03T16:50:13;14.30;29.70
77829;DHT22;67019;51.034;3.728;2023-04-03T16:52:41;14.10;30.30
77829;DHT22;67019;51.034;3.728;2023-04-03T16:55:09;14.00;30.10